Time;durP1;ratioP1;P1;durP2;ratioP2;P2;SDS_P1;SDS_P2;PMS_P1;PMS_P2;Temp;Humidity;BMP_temperature;BMP_pressure;BME280_temperature;BME280_humidity;BME280_pressure;Samples;Min_cycle;Max_cycle;Signal;HPM_P1;HPM_P2
2023/11/29 00:01:33;;;;;;;7.37;4.97;;;;;;;-141.23;100.00;62281.09;5003830;28;20055;-70
2023/11/29 00:03:59;;;;;;;10.13;5.37;;;;;;;-141.23;100.00;62281.09;5019996;28;20045;-70
2023/11/29 00:06:25;;;;;;;9.53;5.33;;;;;;;-141.23;100.00;62281.09;5035699;28;20063;-70
2023/11/29 00:08:54;;;;;;;7.67;4.93;;;;;;;-141.23;100.00;62281.09;5059679;28;20051;-70
2023/11/29 00:11:20;;;;;;;10.27;5.50;;;;;;;-141.23;100.00;62281.09;5060130;28;20129;-70
2023/11/29 00:13:47;;;;;;;9.53;5.10;;;;;;;-141.23;100.00;62281.09;5095771;28;20055;-69
2023/11/29 00:16:14;;;;;;;7.57;4.87;;;;;;;-141.23;100.00;62281.09;5056729;28;20063;-69
2023/11/29 00:18:41;;;;;;;11.33;5.50;;;;;;;-141.23;100.00;62281.09;5040495;28;20472;-70
2023/11/29 00:21:08;;;;;;;9.30;5.07;;;;;;;-141.23;100.00;62281.09;5023607;28;20044;-70
2023/11/29 00:23:35;;;;;;;9.73;5.63;;;;;;;-141.23;100.00;62281.09;5077108;28;20055;-69
2023/11/29 00:26:01;;;;;;;8.20;4.87;;;;;;;-141.23;100.00;62281.09;5020491;28;20056;-70
2023/11/29 00:28:29;;;;;;;9.87;4.90;;;;;;;-141.23;100.00;62281.09;5007694;28;20147;-72
2023/11/29 00:30:56;;;;;;;9.63;5.37;;;;;;;-141.23;100.00;62281.09;5003767;28;20060;-70
2023/11/29 00:33:24;;;;;;;7.53;4.83;;;;;;;-141.23;100.00;62281.09;5020980;28;20516;-70
2023/11/29 00:35:54;;;;;;;9.27;5.20;;;;;;;-141.23;100.00;62281.09;5003999;28;20045;-70
2023/11/29 00:38:21;;;;;;;8.93;5.00;;;;;;;-141.23;100.00;62281.09;5004259;28;20067;-70
2023/11/29 00:40:51;;;;;;;12.83;6.00;;;;;;;-141.23;100.00;62281.09;5004180;28;20059;-69
2023/11/29 00:43:17;;;;;;;11.23;5.27;;;;;;;-141.23;100.00;62281.09;5003512;28;20476;-70
2023/11/29 00:45:44;;;;;;;11.13;5.63;;;;;;;-141.23;100.00;62281.09;5036415;28;20053;-70
2023/11/29 00:48:11;;;;;;;9.50;5.57;;;;;;;-141.23;100.00;62281.09;5003566;28;20056;-70
2023/11/29 00:50:37;;;;;;;8.70;5.33;;;;;;;-141.23;100.00;62281.09;5019852;28;20063;-69
2023/11/29 00:53:03;;;;;;;11.70;5.40;;;;;;;-141.23;100.00;62281.09;5014060;28;20055;-70
2023/11/29 00:55:29;;;;;;;12.77;6.20;;;;;;;-141.23;100.00;62281.09;5043195;28;20043;-69
2023/11/29 00:57:56;;;;;;;15.63;6.23;;;;;;;-141.23;100.00;62281.09;5083440;27;20475;-69
2023/11/29 01:00:22;;;;;;;10.67;5.70;;;;;;;-141.23;100.00;62281.09;5066588;27;20127;-69
2023/11/29 01:02:48;;;;;;;18.47;7.13;;;;;;;-141.23;100.00;62281.09;5099338;27;20071;-69
2023/11/29 01:05:14;;;;;;;16.47;6.40;;;;;;;-141.23;100.00;62281.09;5121382;27;20046;-71
2023/11/29 01:07:42;;;;;;;20.50;6.33;;;;;;;-141.23;100.00;62281.09;5072363;28;20121;-71
2023/11/29 01:10:09;;;;;;;17.27;5.67;;;;;;;-141.23;100.00;62281.09;5052338;28;20142;-72
2023/11/29 01:12:36;;;;;;;12.10;5.73;;;;;;;-141.23;100.00;62281.09;5003223;28;20057;-71
2023/11/29 01:15:06;;;;;;;13.53;5.83;;;;;;;-141.23;100.00;62281.09;5003032;28;20048;-72
2023/11/29 01:17:33;;;;;;;10.17;5.53;;;;;;;-141.23;100.00;62281.09;5052568;28;20045;-72
2023/11/29 01:19:59;;;;;;;16.50;5.60;;;;;;;-141.23;100.00;62281.09;5019652;28;20079;-72
2023/11/29 01:22:26;;;;;;;20.40;6.27;;;;;;;-141.23;100.00;62281.09;5052766;28;20056;-71
2023/11/29 01:24:53;;;;;;;14.93;5.70;;;;;;;-141.23;100.00;62281.09;5002947;28;20057;-71
2023/11/29 01:27:21;;;;;;;12.83;4.50;;;;;;;-141.23;100.00;62281.09;4979968;28;20080;-72
2023/11/29 01:29:49;;;;;;;10.93;5.40;;;;;;;-141.23;100.00;62281.09;4995859;28;20506;-72
2023/11/29 01:32:15;;;;;;;11.37;5.40;;;;;;;-141.23;100.00;62281.09;5012391;28;20061;-71
2023/11/29 01:34:43;;;;;;;14.13;5.57;;;;;;;-141.23;100.00;62281.09;4995989;28;20046;-71
2023/11/29 01:37:09;;;;;;;11.13;4.83;;;;;;;-141.23;100.00;62281.09;4995864;28;20038;-72
2023/11/29 01:39:35;;;;;;;17.00;5.10;;;;;;;-141.23;100.00;62281.09;5016723;28;20052;-72
2023/11/29 01:42:01;;;;;;;13.87;5.37;;;;;;;-141.23;100.00;62281.09;4983264;28;20492;-72
2023/11/29 01:44:27;;;;;;;12.57;5.67;;;;;;;-141.23;100.00;62281.09;5007252;28;20063;-69
2023/11/29 01:46:53;;;;;;;16.27;5.00;;;;;;;-141.23;100.00;62281.09;5071879;28;20629;-69
2023/11/29 01:49:21;;;;;;;13.57;5.77;;;;;;;-141.23;100.00;62281.09;5038659;28;20059;-69
2023/11/29 01:51:47;;;;;;;12.27;5.60;;;;;;;-141.23;100.00;62281.09;5055069;28;20226;-67
2023/11/29 01:54:16;;;;;;;13.10;5.60;;;;;;;-141.23;100.00;62281.09;5038474;28;20643;-70
2023/11/29 01:56:42;;;;;;;9.33;5.23;;;;;;;-141.23;100.00;62281.09;5038898;28;20079;-69
2023/11/29 01:59:08;;;;;;;14.43;5.53;;;;;;;-141.23;100.00;62281.09;5055220;28;20095;-70
2023/11/29 02:01:35;;;;;;;11.07;5.40;;;;;;;-141.23;100.00;62281.09;5038424;28;20052;-69
2023/11/29 02:04:00;;;;;;;16.00;5.80;;;;;;;-141.23;100.00;62281.09;5062528;28;20071;-70
2023/11/29 02:06:26;;;;;;;11.90;5.63;;;;;;;-141.23;100.00;62281.09;5061766;28;20108;-69
2023/11/29 02:08:52;;;;;;;13.47;5.50;;;;;;;-141.23;100.00;62281.09;5078273;28;20587;-70
2023/11/29 02:11:19;;;;;;;10.50;5.53;;;;;;;-141.23;100.00;62281.09;5078187;28;20047;-70
2023/11/29 02:13:48;;;;;;;17.77;6.03;;;;;;;-141.23;100.00;62281.09;5096734;27;20042;-71
2023/11/29 02:16:14;;;;;;;22.70;6.70;;;;;;;-141.23;100.00;62281.09;5103338;27;20043;-71
2023/11/29 02:18:42;;;;;;;16.87;6.40;;;;;;;-141.23;100.00;62281.09;5137062;27;20038;-72
2023/11/29 02:21:08;;;;;;;16.50;6.83;;;;;;;-141.23;100.00;62281.09;5094764;28;20083;-72
2023/11/29 02:23:47;;;;;;;10.93;5.73;;;;;;;-141.23;100.00;62281.09;5061553;28;20086;-72
2023/11/29 02:26:13;;;;;;;11.80;5.97;;;;;;;-141.23;100.00;62281.09;5059314;28;20039;-73
2023/11/29 02:28:38;;;;;;;10.80;6.40;;;;;;;-141.23;100.00;62281.09;5037681;28;20059;-72
2023/11/29 02:31:07;;;;;;;11.03;6.73;;;;;;;-141.23;100.00;62281.09;5006103;28;20093;-72
2023/11/29 02:33:33;;;;;;;11.20;6.60;;;;;;;-141.23;100.00;62281.09;4982204;28;20045;-72
2023/11/29 02:35:59;;;;;;;12.10;6.93;;;;;;;-141.23;100.00;62281.09;4997555;28;20057;-72
2023/11/29 02:38:26;;;;;;;10.70;6.97;;;;;;;-141.23;100.00;62281.09;4981978;28;20865;-72
2023/11/29 02:40:53;;;;;;;9.47;6.07;;;;;;;-141.23;100.00;62281.09;4998414;28;20521;-70
2023/11/29 02:43:19;;;;;;;10.37;6.87;;;;;;;-141.23;100.00;62281.09;4982133;28;20049;-70
2023/11/29 02:45:46;;;;;;;10.57;7.10;;;;;;;-141.23;100.00;62281.09;4975333;28;20095;-70
2023/11/29 02:48:15;;;;;;;13.37;7.17;;;;;;;-141.23;100.00;62281.09;4943289;28;20046;-70
2023/11/29 02:50:46;;;;;;;12.40;7.30;;;;;;;-141.23;100.00;62281.09;4943748;28;20204;-70
2023/11/29 02:53:12;;;;;;;10.77;6.97;;;;;;;-141.23;100.00;62281.09;4942994;28;20501;-70
2023/11/29 02:55:38;;;;;;;14.03;7.37;;;;;;;-141.23;100.00;62281.09;4942942;28;20097;-70
2023/11/29 02:58:05;;;;;;;11.73;6.33;;;;;;;-141.23;100.00;62281.09;4943370;28;20038;-70
2023/11/29 03:00:32;;;;;;;13.03;6.40;;;;;;;-141.23;100.00;62281.09;4977843;28;20053;-70
2023/11/29 03:02:58;;;;;;;9.63;6.57;;;;;;;-141.23;100.00;62281.09;4981373;28;20397;-75
2023/11/29 03:05:24;;;;;;;10.60;6.60;;;;;;;-141.23;100.00;62281.09;5032195;28;20474;-73
2023/11/29 03:07:50;;;;;;;12.57;7.00;;;;;;;-141.23;100.00;62281.09;5050475;28;20052;-74
2023/11/29 03:10:17;;;;;;;11.80;6.67;;;;;;;-141.23;100.00;62281.09;5018637;28;20508;-75
2023/11/29 03:12:44;;;;;;;14.00;7.27;;;;;;;-141.23;100.00;62281.09;5057656;28;20055;-74
2023/11/29 03:15:12;;;;;;;11.83;7.03;;;;;;;-141.23;100.00;62281.09;5040509;28;20044;-74
2023/11/29 03:17:38;;;;;;;11.67;6.83;;;;;;;-141.23;100.00;62281.09;5060021;28;20054;-74
2023/11/29 03:20:05;;;;;;;9.47;6.37;;;;;;;-141.23;100.00;62281.09;5090665;28;20028;-73
2023/11/29 03:22:31;;;;;;;14.80;6.90;;;;;;;-141.23;100.00;62281.09;5091248;28;20052;-72
2023/11/29 03:24:58;;;;;;;11.93;7.00;;;;;;;-141.23;100.00;62281.09;5084849;28;20550;-72
2023/11/29 03:27:25;;;;;;;10.90;6.53;;;;;;;-141.23;100.00;62281.09;5076068;28;20072;-70
2023/11/29 03:29:51;;;;;;;9.50;6.23;;;;;;;-141.23;100.00;62281.09;5074490;28;20059;-69
2023/11/29 03:32:17;;;;;;;12.40;6.90;;;;;;;-141.23;100.00;62281.09;5051164;28;20044;-69
2023/11/29 03:34:43;;;;;;;11.43;7.00;;;;;;;-141.23;100.00;62281.09;5067765;28;20475;-69
2023/11/29 03:37:09;;;;;;;11.30;6.57;;;;;;;-141.23;100.00;62281.09;5101262;28;20032;-71
2023/11/29 03:39:35;;;;;;;8.87;6.27;;;;;;;-141.23;100.00;62281.09;5107334;27;20034;-70
2023/11/29 03:42:01;;;;;;;10.80;6.33;;;;;;;-141.23;100.00;62281.09;5100804;27;20050;-70
2023/11/29 03:44:27;;;;;;;10.63;6.00;;;;;;;-141.23;100.00;62281.09;5098503;27;20035;-69
2023/11/29 03:46:53;;;;;;;12.27;6.47;;;;;;;-141.23;100.00;62281.09;5101298;27;20558;-69
2023/11/29 03:49:19;;;;;;;11.17;6.60;;;;;;;-141.23;100.00;62281.09;5123189;27;20035;-68
2023/11/29 03:51:44;;;;;;;11.07;6.00;;;;;;;-141.23;100.00;62281.09;5117307;27;20429;-66
2023/11/29 03:54:10;;;;;;;9.37;6.00;;;;;;;-141.23;100.00;62281.09;5124701;27;20049;-68
2023/11/29 03:57:06;;;;;;;9.90;6.67;;;;;;;-141.23;100.00;62281.09;5105055;27;20047;-68
2023/11/29 03:59:35;;;;;;;11.70;6.37;;;;;;;-141.23;100.00;62281.09;5047804;28;20043;-70
2023/11/29 04:02:01;;;;;;;11.17;6.67;;;;;;;-141.23;100.00;62281.09;5116958;27;20038;-69
2023/11/29 04:04:28;;;;;;;13.53;6.77;;;;;;;-141.23;100.00;62281.09;5117845;27;20046;-70
2023/11/29 04:06:55;;;;;;;9.80;6.70;;;;;;;-141.23;100.00;62281.09;5100829;27;20043;-70
2023/11/29 04:09:21;;;;;;;10.77;6.60;;;;;;;-141.23;100.00;62281.09;5117033;27;20034;-70
2023/11/29 04:11:48;;;;;;;10.77;7.30;;;;;;;-141.23;100.00;62281.09;5123829;27;20039;-70
2023/11/29 04:14:14;;;;;;;11.43;7.27;;;;;;;-141.23;100.00;62281.09;5100673;27;20439;-72
2023/11/29 04:16:40;;;;;;;12.70;7.13;;;;;;;-141.23;100.00;62281.09;5099827;27;20047;-70
2023/11/29 04:19:05;;;;;;;11.57;7.00;;;;;;;-141.23;100.00;62281.09;5123512;27;20421;-69
2023/11/29 04:21:34;;;;;;;12.40;7.70;;;;;;;-141.23;100.00;62281.09;5134867;27;20035;-69
2023/11/29 04:24:01;;;;;;;10.73;6.63;;;;;;;-141.23;100.00;62281.09;5117407;27;20073;-69
2023/11/29 04:26:28;;;;;;;13.53;7.43;;;;;;;-141.23;100.00;62281.09;5112061;27;20039;-69
2023/11/29 04:28:56;;;;;;;11.20;6.93;;;;;;;-141.23;100.00;62281.09;5100755;27;20095;-69
2023/11/29 04:31:25;;;;;;;17.47;7.67;;;;;;;-141.23;100.00;62281.09;5117381;27;20047;-70
2023/11/29 04:33:51;;;;;;;13.30;8.00;;;;;;;-141.23;100.00;62281.09;5133697;27;20119;-69
2023/11/29 04:36:18;;;;;;;11.83;7.13;;;;;;;-141.23;100.00;62281.09;5100934;27;20459;-67
2023/11/29 04:38:45;;;;;;;12.70;7.87;;;;;;;-141.23;100.00;62281.09;5129136;27;20489;-67
2023/11/29 04:41:11;;;;;;;15.30;8.27;;;;;;;-141.23;100.00;62281.09;5117020;27;20067;-68
2023/11/29 04:43:38;;;;;;;14.03;8.80;;;;;;;-141.23;100.00;62281.09;5096891;28;20038;-69
2023/11/29 04:46:04;;;;;;;16.30;8.80;;;;;;;-141.23;100.00;62281.09;5097419;28;20486;-68
2023/11/29 04:48:31;;;;;;;16.83;9.27;;;;;;;-141.23;100.00;62281.09;5114567;28;20059;-69
2023/11/29 04:50:57;;;;;;;15.90;8.93;;;;;;;-141.23;100.00;62281.09;5080786;28;20135;-67
2023/11/29 04:54:07;;;;;;;15.00;8.70;;;;;;;-141.23;100.00;62281.09;5080728;28;20549;-69
2023/11/29 04:56:35;;;;;;;14.73;7.73;;;;;;;-141.23;100.00;62281.09;5029377;28;20049;-69
2023/11/29 04:59:01;;;;;;;21.00;8.77;;;;;;;-141.23;100.00;62281.09;5013733;28;20045;-70
2023/11/29 05:01:37;;;;;;;15.60;9.13;;;;;;;-141.23;100.00;62281.09;5000006;28;20050;-68
2023/11/29 05:04:10;;;;;;;17.30;10.17;;;;;;;-141.23;100.00;62281.09;4986146;28;20053;-69
2023/11/29 05:06:36;;;;;;;19.43;9.70;;;;;;;-141.23;100.00;62281.09;4984197;28;20057;-68
2023/11/29 05:09:05;;;;;;;14.60;8.30;;;;;;;-141.23;100.00;62281.09;4980601;28;20148;-70
2023/11/29 05:11:31;;;;;;;19.20;10.07;;;;;;;-141.23;100.00;62281.09;5012916;28;20204;-69
2023/11/29 05:13:57;;;;;;;17.97;9.83;;;;;;;-141.23;100.00;62281.09;4996609;28;20104;-69
2023/11/29 05:16:24;;;;;;;18.30;9.73;;;;;;;-141.23;100.00;62281.09;4996441;28;20100;-69
2023/11/29 05:18:55;;;;;;;17.00;9.13;;;;;;;-141.23;100.00;62281.09;4996527;28;20056;-69
2023/11/29 05:21:21;;;;;;;21.50;9.87;;;;;;;-141.23;100.00;62281.09;4996482;28;20041;-68
2023/11/29 05:23:47;;;;;;;19.30;9.30;;;;;;;-141.23;100.00;62281.09;5012793;28;20045;-69
2023/11/29 05:26:14;;;;;;;18.43;9.57;;;;;;;-141.23;100.00;62281.09;4996403;28;20164;-69
2023/11/29 05:28:40;;;;;;;16.27;9.17;;;;;;;-141.23;100.00;62281.09;5060754;28;20459;-68
2023/11/29 05:31:05;;;;;;;14.80;8.93;;;;;;;-141.23;100.00;62281.09;5078747;28;20146;-68
2023/11/29 05:33:32;;;;;;;18.03;10.00;;;;;;;-141.23;100.00;62281.09;5098311;27;20581;-68
2023/11/29 05:35:59;;;;;;;16.97;10.33;;;;;;;-141.23;100.00;62281.09;5082418;27;20046;-68
2023/11/29 05:38:25;;;;;;;16.97;9.97;;;;;;;-141.23;100.00;62281.09;5058664;28;20087;-68
2023/11/29 05:40:51;;;;;;;15.87;8.97;;;;;;;-141.23;100.00;62281.09;5075921;28;20055;-68
2023/11/29 05:43:17;;;;;;;20.17;9.73;;;;;;;-141.23;100.00;62281.09;5095927;28;20067;-68
2023/11/29 05:45:43;;;;;;;21.27;10.30;;;;;;;-141.23;100.00;62281.09;5078970;28;20135;-68
2023/11/29 05:48:09;;;;;;;16.60;9.67;;;;;;;-141.23;100.00;62281.09;5079357;28;20135;-68
2023/11/29 05:50:39;;;;;;;17.50;9.20;;;;;;;-141.23;100.00;62281.09;5079246;28;20058;-67
2023/11/29 05:53:05;;;;;;;17.43;10.60;;;;;;;-141.23;100.00;62281.09;5079130;28;20047;-67
2023/11/29 05:55:34;;;;;;;19.53;10.30;;;;;;;-141.23;100.00;62281.09;5062565;28;20138;-68
2023/11/29 05:58:01;;;;;;;18.00;9.93;;;;;;;-141.23;100.00;62281.09;5061664;28;20146;-67
2023/11/29 06:00:27;;;;;;;14.80;8.20;;;;;;;-141.23;100.00;62281.09;5076507;28;20042;-68
2023/11/29 06:02:53;;;;;;;19.50;10.50;;;;;;;-141.23;100.00;62281.09;5094471;28;20541;-68
2023/11/29 06:05:18;;;;;;;15.90;9.53;;;;;;;-141.23;100.00;62281.09;5077767;28;20043;-67
2023/11/29 06:07:46;;;;;;;16.40;9.50;;;;;;;-141.23;100.00;62281.09;5077061;28;20063;-67
2023/11/29 06:10:12;;;;;;;21.00;9.67;;;;;;;-141.23;100.00;62281.09;5078282;28;20062;-67
2023/11/29 06:12:38;;;;;;;18.57;10.03;;;;;;;-141.23;100.00;62281.09;5078523;28;20495;-67
2023/11/29 06:15:04;;;;;;;30.33;10.40;;;;;;;-141.23;100.00;62281.09;5066082;27;20055;-68
2023/11/29 06:17:36;;;;;;;18.02;8.50;;;;;;;-141.23;100.00;62281.09;5100870;27;20039;-68
2023/11/29 06:20:11;;;;;;;19.03;8.90;;;;;;;-141.23;100.00;62281.09;5100235;27;20046;-67
2023/11/29 06:22:37;;;;;;;17.40;8.13;;;;;;;-141.23;100.00;62281.09;5083928;27;20043;-67
2023/11/29 06:25:07;;;;;;;19.30;8.27;;;;;;;-141.23;100.00;62281.09;5082631;27;20035;-68
2023/11/29 06:27:35;;;;;;;15.40;9.10;;;;;;;-141.23;100.00;62281.09;5083694;27;20250;-67
2023/11/29 06:30:01;;;;;;;13.57;7.67;;;;;;;-141.23;100.00;62281.09;5082695;27;20047;-67
2023/11/29 06:32:28;;;;;;;20.77;8.90;;;;;;;-141.23;100.00;62281.09;5083036;27;20039;-68
2023/11/29 06:34:55;;;;;;;19.17;7.63;;;;;;;-141.23;100.00;62281.09;5082381;27;20494;-68
2023/11/29 06:37:23;;;;;;;14.03;8.03;;;;;;;-141.23;100.00;62281.09;5083208;27;20141;-67
2023/11/29 06:39:49;;;;;;;15.67;8.17;;;;;;;-141.23;100.00;62281.09;5116289;27;20233;-67
2023/11/29 06:42:15;;;;;;;15.10;8.03;;;;;;;-141.23;100.00;62281.09;5082739;27;20446;-67
2023/11/29 06:44:42;;;;;;;16.30;8.17;;;;;;;-141.23;100.00;62281.09;5083049;27;20092;-67
2023/11/29 06:47:08;;;;;;;15.13;7.40;;;;;;;-141.23;100.00;62281.09;5082398;27;20055;-67
2023/11/29 06:49:34;;;;;;;14.90;7.57;;;;;;;-141.23;100.00;62281.09;5082301;27;20124;-67
2023/11/29 06:52:02;;;;;;;17.00;7.67;;;;;;;-141.23;100.00;62281.09;5082150;27;20043;-68
2023/11/29 06:54:29;;;;;;;13.67;8.23;;;;;;;-141.23;100.00;62281.09;5082810;27;20035;-67
2023/11/29 06:56:55;;;;;;;14.83;7.80;;;;;;;-141.23;100.00;62281.09;5082150;27;20467;-68
2023/11/29 06:59:21;;;;;;;12.33;7.60;;;;;;;-141.23;100.00;62281.09;5082088;27;20082;-67
2023/11/29 07:01:47;;;;;;;16.20;8.07;;;;;;;-141.23;100.00;62281.09;5082111;27;20439;-68
2023/11/29 07:04:13;;;;;;;15.50;8.37;;;;;;;-141.23;100.00;62281.09;5082105;27;20179;-68
2023/11/29 07:06:39;;;;;;;17.10;8.93;;;;;;;-141.23;100.00;62281.09;5081923;27;20039;-67
2023/11/29 07:09:06;;;;;;;16.40;7.97;;;;;;;-141.23;100.00;62281.09;5081850;27;20058;-68
2023/11/29 07:11:34;;;;;;;14.33;8.23;;;;;;;-141.23;100.00;62281.09;5082079;27;20050;-68
2023/11/29 07:14:01;;;;;;;13.97;7.23;;;;;;;-141.23;100.00;62281.09;5099056;27;20050;-68
2023/11/29 07:16:28;;;;;;;16.23;7.90;;;;;;;-141.23;100.00;62281.09;5081797;27;20058;-67
2023/11/29 07:18:54;;;;;;;14.03;8.00;;;;;;;-141.23;100.00;62281.09;5081920;27;20043;-68
2023/11/29 07:21:20;;;;;;;14.60;7.87;;;;;;;-141.23;100.00;62281.09;5081506;27;20046;-68
2023/11/29 07:23:46;;;;;;;13.07;7.90;;;;;;;-141.23;100.00;62281.09;5098830;27;20043;-68
2023/11/29 07:26:12;;;;;;;14.90;8.43;;;;;;;-141.23;100.00;62281.09;5081590;27;20038;-68
2023/11/29 07:28:38;;;;;;;11.67;7.50;;;;;;;-141.23;100.00;62281.09;5098663;27;20039;-67
2023/11/29 07:31:11;;;;;;;18.00;7.87;;;;;;;-141.23;100.00;62281.09;5081610;27;20054;-68
2023/11/29 07:33:38;;;;;;;14.37;8.10;;;;;;;-141.23;100.00;62281.09;5098651;27;20035;-68
2023/11/29 07:36:14;;;;;;;16.00;7.70;;;;;;;-141.23;100.00;62281.09;5098326;27;20522;-68
2023/11/29 07:38:41;;;;;;;12.97;7.37;;;;;;;-141.23;100.00;62281.09;5082139;27;20039;-67
2023/11/29 07:41:07;;;;;;;15.97;8.03;;;;;;;-141.23;100.00;62281.09;5098150;27;20561;-68
2023/11/29 07:43:32;;;;;;;22.10;8.33;;;;;;;-141.23;100.00;62281.09;5081527;27;20082;-67
2023/11/29 07:45:58;;;;;;;14.70;8.40;;;;;;;-141.23;100.00;62281.09;5098408;28;20069;-68
2023/11/29 07:48:24;;;;;;;14.27;7.80;;;;;;;-141.23;100.00;62281.09;5081497;27;20038;-68
2023/11/29 07:50:56;;;;;;;13.80;8.23;;;;;;;-141.23;100.00;62281.09;5098674;27;20039;-68
2023/11/29 07:53:23;;;;;;;14.27;8.43;;;;;;;-141.23;100.00;62281.09;5081475;27;20104;-68
2023/11/29 07:55:48;;;;;;;15.30;8.83;;;;;;;-141.23;100.00;62281.09;5081600;27;20495;-68
2023/11/29 07:58:14;;;;;;;14.97;7.93;;;;;;;-141.23;100.00;62281.09;5081257;27;20133;-68
2023/11/29 08:00:40;;;;;;;10.80;6.93;;;;;;;-141.23;100.00;62281.09;5081163;28;20035;-68
2023/11/29 08:03:06;;;;;;;25.37;8.03;;;;;;;-141.23;100.00;62281.09;5098107;28;20047;-68
2023/11/29 08:05:33;;;;;;;13.67;8.20;;;;;;;-141.23;100.00;62281.09;5081396;28;20141;-68
2023/11/29 08:07:59;;;;;;;17.73;8.63;;;;;;;-141.23;100.00;62281.09;5081184;28;20122;-68
2023/11/29 08:10:25;;;;;;;15.83;8.53;;;;;;;-141.23;100.00;62281.09;5080954;28;20143;-68
2023/11/29 08:12:51;;;;;;;17.00;8.33;;;;;;;-141.23;100.00;62281.09;5081222;28;20065;-70
2023/11/29 08:15:17;;;;;;;16.50;9.10;;;;;;;-141.23;100.00;62281.09;5081211;28;20043;-68
2023/11/29 08:17:45;;;;;;;15.60;8.70;;;;;;;-141.23;100.00;62281.09;5080844;28;20055;-68
2023/11/29 08:20:11;;;;;;;18.77;8.93;;;;;;;-141.23;100.00;62281.09;5098034;28;20170;-68
2023/11/29 08:22:37;;;;;;;15.27;9.37;;;;;;;-141.23;100.00;62281.09;5080979;28;20062;-68
2023/11/29 08:25:03;;;;;;;17.33;8.87;;;;;;;-141.23;100.00;62281.09;5080984;28;20134;-68
2023/11/29 08:27:31;;;;;;;14.97;8.43;;;;;;;-141.23;100.00;62281.09;5059788;28;20052;-68
2023/11/29 08:29:57;;;;;;;23.20;9.53;;;;;;;-141.23;100.00;62281.09;5059482;28;20055;-68
2023/11/29 08:32:23;;;;;;;17.57;9.93;;;;;;;-141.23;100.00;62281.09;5059891;28;20138;-68
2023/11/29 08:34:49;;;;;;;15.87;8.87;;;;;;;-141.23;100.00;62281.09;5079126;28;20193;-68
2023/11/29 08:37:16;;;;;;;15.93;8.43;;;;;;;-141.23;100.00;62281.09;5063556;28;20043;-68
2023/11/29 08:39:42;;;;;;;18.23;9.47;;;;;;;-141.23;100.00;62281.09;5080201;28;20047;-67
2023/11/29 08:42:08;;;;;;;18.20;8.53;;;;;;;-141.23;100.00;62281.09;5080071;28;20374;-68
2023/11/29 08:44:34;;;;;;;14.97;9.03;;;;;;;-141.23;100.00;62281.09;5080172;28;20032;-68
2023/11/29 08:47:00;;;;;;;17.87;9.40;;;;;;;-141.23;100.00;62281.09;5063298;28;20047;-68
2023/11/29 08:49:26;;;;;;;18.77;9.53;;;;;;;-141.23;100.00;62281.09;5063393;28;20134;-68
2023/11/29 08:51:52;;;;;;;19.27;9.70;;;;;;;-141.23;100.00;62281.09;5063571;28;20052;-68
2023/11/29 08:54:18;;;;;;;20.90;10.07;;;;;;;-141.23;100.00;62281.09;5097115;28;20200;-68
2023/11/29 08:56:44;;;;;;;18.33;9.63;;;;;;;-141.23;100.00;62281.09;5063343;28;20036;-68
2023/11/29 08:59:10;;;;;;;19.03;10.00;;;;;;;-141.23;100.00;62281.09;5063197;28;20048;-69
2023/11/29 09:01:36;;;;;;;17.40;9.20;;;;;;;-141.23;100.00;62281.09;5063295;28;20045;-68
2023/11/29 09:04:02;;;;;;;17.93;9.87;;;;;;;-141.23;100.00;62281.09;5083220;27;20108;-68
2023/11/29 09:06:30;;;;;;;17.63;9.40;;;;;;;-141.23;100.00;62281.09;5084177;27;20486;-68
2023/11/29 09:08:56;;;;;;;17.20;9.13;;;;;;;-141.23;100.00;62281.09;5101269;27;20047;-68
2023/11/29 09:11:22;;;;;;;22.57;11.30;;;;;;;-141.23;100.00;62281.09;5067089;27;20441;-68
2023/11/29 09:13:48;;;;;;;22.17;11.10;;;;;;;-141.23;100.00;62281.09;5118101;27;20088;-68
2023/11/29 09:16:15;;;;;;;17.70;10.33;;;;;;;-141.23;100.00;62281.09;5100828;27;20075;-68
2023/11/29 09:18:44;;;;;;;19.17;9.80;;;;;;;-141.23;100.00;62281.09;5100821;27;20055;-68
2023/11/29 09:21:10;;;;;;;15.83;8.70;;;;;;;-141.23;100.00;62281.09;5100984;27;20162;-68
2023/11/29 09:23:37;;;;;;;19.13;10.30;;;;;;;-141.23;100.00;62281.09;5084045;27;20133;-68
2023/11/29 09:26:03;;;;;;;21.00;10.57;;;;;;;-141.23;100.00;62281.09;5100906;27;20107;-68
2023/11/29 09:28:29;;;;;;;21.43;10.50;;;;;;;-141.23;100.00;62281.09;5100677;27;20074;-68
2023/11/29 09:30:57;;;;;;;18.73;10.37;;;;;;;-141.23;100.00;62281.09;5117618;27;20502;-71
2023/11/29 09:33:23;;;;;;;22.07;11.47;;;;;;;-141.23;100.00;62281.09;5101051;27;20035;-68
2023/11/29 09:35:49;;;;;;;21.97;9.73;;;;;;;-141.23;100.00;62281.09;5100457;27;20129;-68
2023/11/29 09:38:16;;;;;;;21.33;10.93;;;;;;;-141.23;100.00;62281.09;5100831;27;20043;-68
2023/11/29 09:40:45;;;;;;;22.77;10.23;;;;;;;-141.23;100.00;62281.09;5083874;27;20469;-68
2023/11/29 09:43:11;;;;;;;18.77;10.30;;;;;;;-141.23;100.00;62281.09;5100470;27;20031;-68
2023/11/29 09:45:37;;;;;;;21.20;11.77;;;;;;;-141.23;100.00;62281.09;5083484;27;20042;-68
2023/11/29 09:48:04;;;;;;;21.13;9.97;;;;;;;-141.23;100.00;62281.09;5100436;27;20066;-68
2023/11/29 09:50:31;;;;;;;22.57;10.07;;;;;;;-141.23;100.00;62281.09;5100218;27;20368;-68
2023/11/29 09:52:57;;;;;;;20.60;10.83;;;;;;;-141.23;100.00;62281.09;5117457;27;20038;-69
2023/11/29 09:55:25;;;;;;;23.90;11.10;;;;;;;-141.23;100.00;62281.09;5100433;27;20467;-68
2023/11/29 09:57:55;;;;;;;16.03;8.27;;;;;;;-141.23;100.00;62281.09;5100502;27;20053;-68
2023/11/29 10:00:24;;;;;;;18.40;10.37;;;;;;;-141.23;100.00;62281.09;5100165;27;20039;-68
2023/11/29 10:02:51;;;;;;;17.33;9.13;;;;;;;-141.23;100.00;62281.09;5100044;27;20070;-68
2023/11/29 10:05:17;;;;;;;24.77;11.07;;;;;;;-141.23;100.00;62281.09;5083187;27;20039;-68
2023/11/29 10:07:45;;;;;;;24.30;10.83;;;;;;;-141.23;100.00;62281.09;5116929;27;20047;-68
2023/11/29 10:10:12;;;;;;;22.83;11.53;;;;;;;-141.23;100.00;62281.09;5134355;27;20050;-68
2023/11/29 10:12:39;;;;;;;26.77;11.73;;;;;;;-141.23;100.00;62281.09;5116676;27;20387;-67
2023/11/29 10:15:10;;;;;;;23.07;10.27;;;;;;;-141.23;100.00;62281.09;5116511;27;20031;-68
2023/11/29 10:17:39;;;;;;;22.43;11.77;;;;;;;-141.23;100.00;62281.09;5082935;27;20646;-68
2023/11/29 10:20:09;;;;;;;23.13;11.77;;;;;;;-141.23;100.00;62281.09;5099812;27;20478;-68
2023/11/29 10:22:52;;;;;;;24.40;11.52;;;;;;;-141.23;100.00;62281.09;5082794;27;20054;-68
2023/11/29 10:25:20;;;;;;;28.50;11.73;;;;;;;-141.23;100.00;62281.09;5099549;27;20769;-69
2023/11/29 10:27:50;;;;;;;23.50;12.20;;;;;;;-141.23;100.00;62281.09;5065698;27;20047;-68
2023/11/29 10:30:22;;;;;;;31.80;13.90;;;;;;;-141.23;100.00;62281.09;5096341;27;20093;-68
2023/11/29 10:33:12;;;;;;;25.93;12.53;;;;;;;-141.23;100.00;62281.09;5117347;27;20043;-70
2023/11/29 10:35:46;;;;;;;28.67;12.70;;;;;;;-141.23;100.00;62281.09;5018470;28;20053;-68
2023/11/29 10:38:18;;;;;;;25.07;12.43;;;;;;;-141.23;100.00;62281.09;5013903;28;20049;-68
2023/11/29 10:40:51;;;;;;;32.37;13.00;;;;;;;-141.23;100.00;62281.09;5034539;28;20049;-68
2023/11/29 10:43:38;;;;;;;23.67;11.80;;;;;;;-141.23;100.00;62281.09;5019215;28;20049;-68
2023/11/29 10:46:25;;;;;;;23.40;11.30;;;;;;;-141.23;100.00;62281.09;5017735;28;20139;-69
2023/11/29 10:49:21;;;;;;;29.63;12.83;;;;;;;-141.23;100.00;62281.09;5002313;28;20192;-68
2023/11/29 10:52:00;;;;;;;28.17;12.33;;;;;;;-141.23;100.00;62281.09;5018545;28;20099;-68
2023/11/29 10:54:35;;;;;;;18.27;9.75;;;;;;;-141.23;100.00;62281.09;5003456;28;20056;-68
2023/11/29 10:57:09;;;;;;;21.13;10.57;;;;;;;-141.23;100.00;62281.09;5001246;28;20053;-70
2023/11/29 10:59:41;;;;;;;;;;;;;;;-141.23;100.00;62281.09;4995491;28;20057;-69
2023/11/29 11:02:16;;;;;;;17.30;9.87;;;;;;;-141.23;100.00;62281.09;4978523;28;20377;-69
2023/11/29 11:05:17;;;;;;;21.03;11.00;;;;;;;-141.23;100.00;62281.09;4975476;28;20060;-68